sensor_id;sensor_type;location;lat;lon;timestamp;P1;durP1;ratioP1;P2;durP2;ratioP2
13933;SDS011;7039;52.168;9.866;2023-05-13T00:01:20;15.97;;;7.70;;
13933;SDS011;7039;52.168;9.866;2023-05-13T00:03:46;12.30;;;7.20;;
13933;SDS011;7039;52.168;9.866;2023-05-13T00:06:14;11.87;;;7.10;;
13933;SDS011;7039;52.168;9.866;2023-05-13T00:08:41;9.30;;;6.87;;
13933;SDS011;7039;52.168;9.866;2023-05-13T00:11:07;10.93;;;6.90;;
13933;SDS011;7039;52.168;9.866;2023-05-13T00:13:34;10.67;;;6.87;;
13933;SDS011;7039;52.168;9.866;2023-05-13T00:16:01;9.50;;;6.30;;
13933;SDS011;7039;52.168;9.866;2023-05-13T00:18:28;10.70;;;6.43;;
13933;SDS011;7039;52.168;9.866;2023-05-13T00:20:54;11.80;;;6.93;;
13933;SDS011;7039;52.168;9.866;2023-05-13T00:23:22;9.73;;;6.87;;
13933;SDS011;7039;52.168;9.866;2023-05-13T00:25:49;15.00;;;6.63;;
13933;SDS011;7039;52.168;9.866;2023-05-13T00:28:15;11.20;;;6.57;;
13933;SDS011;7039;52.168;9.866;2023-05-13T00:30:42;8.33;;;6.73;;
13933;SDS011;7039;52.168;9.866;2023-05-13T00:33:09;6.43;;;5.83;;
13933;SDS011;7039;52.168;9.866;2023-05-13T00:35:36;10.83;;;6.27;;
13933;SDS011;7039;52.168;9.866;2023-05-13T00:38:02;12.83;;;6.70;;
13933;SDS011;7039;52.168;9.866;2023-05-13T00:40:30;12.33;;;6.17;;
13933;SDS011;7039;52.168;9.866;2023-05-13T00:42:59;11.07;;;6.27;;
13933;SDS011;7039;52.168;9.866;2023-05-13T00:45:25;8.97;;;6.00;;
13933;SDS011;7039;52.168;9.866;2023-05-13T00:47:52;9.77;;;6.00;;
13933;SDS011;7039;52.168;9.866;2023-05-13T00:50:19;9.77;;;5.93;;
13933;SDS011;7039;52.168;9.866;2023-05-13T00:52:46;7.80;;;5.90;;
13933;SDS011;7039;52.168;9.866;2023-05-13T00:55:14;12.97;;;6.23;;
13933;SDS011;7039;52.168;9.866;2023-05-13T00:57:42;7.47;;;6.30;;
13933;SDS011;7039;52.168;9.866;2023-05-13T01:00:09;9.90;;;6.17;;
13933;SDS011;7039;52.168;9.866;2023-05-13T01:02:38;10.10;;;6.50;;
13933;SDS011;7039;52.168;9.866;2023-05-13T01:05:12;10.23;;;6.43;;
13933;SDS011;7039;52.168;9.866;2023-05-13T01:07:48;7.87;;;6.47;;
13933;SDS011;7039;52.168;9.866;2023-05-13T01:10:23;13.03;;;6.27;;
13933;SDS011;7039;52.168;9.866;2023-05-13T01:12:57;9.87;;;5.80;;
13933;SDS011;7039;52.168;9.866;2023-05-13T01:15:28;6.93;;;6.07;;
13933;SDS011;7039;52.168;9.866;2023-05-13T01:17:56;11.73;;;6.20;;
13933;SDS011;7039;52.168;9.866;2023-05-13T01:20:30;12.77;;;6.30;;
13933;SDS011;7039;52.168;9.866;2023-05-13T01:22:59;9.53;;;5.93;;
13933;SDS011;7039;52.168;9.866;2023-05-13T01:25:28;7.43;;;6.20;;
13933;SDS011;7039;52.168;9.866;2023-05-13T01:27:54;8.03;;;6.20;;
13933;SDS011;7039;52.168;9.866;2023-05-13T01:30:21;7.67;;;6.30;;
13933;SDS011;7039;52.168;9.866;2023-05-13T01:32:48;9.87;;;6.50;;
13933;SDS011;7039;52.168;9.866;2023-05-13T01:35:16;8.67;;;5.93;;
13933;SDS011;7039;52.168;9.866;2023-05-13T01:37:43;10.90;;;6.80;;
13933;SDS011;7039;52.168;9.866;2023-05-13T01:40:12;9.17;;;6.07;;
13933;SDS011;7039;52.168;9.866;2023-05-13T01:42:39;10.90;;;5.77;;
13933;SDS011;7039;52.168;9.866;2023-05-13T01:45:06;8.50;;;6.17;;
13933;SDS011;7039;52.168;9.866;2023-05-13T01:47:33;7.57;;;5.80;;
13933;SDS011;7039;52.168;9.866;2023-05-13T01:49:59;7.37;;;6.00;;
13933;SDS011;7039;52.168;9.866;2023-05-13T01:52:26;9.63;;;6.40;;
13933;SDS011;7039;52.168;9.866;2023-05-13T01:54:52;9.53;;;5.90;;
13933;SDS011;7039;52.168;9.866;2023-05-13T01:57:20;8.77;;;5.53;;
13933;SDS011;7039;52.168;9.866;2023-05-13T01:59:47;9.67;;;6.27;;
13933;SDS011;7039;52.168;9.866;2023-05-13T02:02:13;11.27;;;6.37;;
13933;SDS011;7039;52.168;9.866;2023-05-13T02:04:40;11.03;;;5.83;;
13933;SDS011;7039;52.168;9.866;2023-05-13T02:07:06;7.80;;;5.83;;
13933;SDS011;7039;52.168;9.866;2023-05-13T02:09:33;8.83;;;6.40;;
13933;SDS011;7039;52.168;9.866;2023-05-13T02:11:59;9.07;;;6.47;;
13933;SDS011;7039;52.168;9.866;2023-05-13T02:14:27;10.07;;;5.87;;
13933;SDS011;7039;52.168;9.866;2023-05-13T02:16:54;10.10;;;6.17;;
13933;SDS011;7039;52.168;9.866;2023-05-13T02:19:20;7.10;;;5.93;;
13933;SDS011;7039;52.168;9.866;2023-05-13T02:21:47;7.33;;;5.80;;
13933;SDS011;7039;52.168;9.866;2023-05-13T02:24:13;12.90;;;5.70;;
13933;SDS011;7039;52.168;9.866;2023-05-13T02:26:40;11.27;;;6.47;;
13933;SDS011;7039;52.168;9.866;2023-05-13T02:29:06;9.27;;;6.50;;
13933;SDS011;7039;52.168;9.866;2023-05-13T02:31:34;10.03;;;6.00;;
13933;SDS011;7039;52.168;9.866;2023-05-13T02:34:01;9.37;;;6.67;;
13933;SDS011;7039;52.168;9.866;2023-05-13T02:36:27;11.40;;;6.30;;
13933;SDS011;7039;52.168;9.866;2023-05-13T02:38:54;7.53;;;6.07;;
13933;SDS011;7039;52.168;9.866;2023-05-13T02:41:21;7.87;;;6.30;;
13933;SDS011;7039;52.168;9.866;2023-05-13T02:43:47;7.47;;;6.40;;
13933;SDS011;7039;52.168;9.866;2023-05-13T02:46:14;9.47;;;6.33;;
13933;SDS011;7039;52.168;9.866;2023-05-13T02:48:42;7.60;;;6.47;;
13933;SDS011;7039;52.168;9.866;2023-05-13T02:51:08;8.00;;;6.20;;
13933;SDS011;7039;52.168;9.866;2023-05-13T02:53:35;7.93;;;6.60;;
13933;SDS011;7039;52.168;9.866;2023-05-13T02:56:01;11.60;;;6.63;;
13933;SDS011;7039;52.168;9.866;2023-05-13T02:58:28;10.00;;;6.30;;
13933;SDS011;7039;52.168;9.866;2023-05-13T03:00:54;7.83;;;6.03;;
13933;SDS011;7039;52.168;9.866;2023-05-13T03:03:20;9.00;;;6.73;;
13933;SDS011;7039;52.168;9.866;2023-05-13T03:05:48;7.77;;;6.40;;
13933;SDS011;7039;52.168;9.866;2023-05-13T03:08:15;10.47;;;6.50;;
13933;SDS011;7039;52.168;9.866;2023-05-13T03:10:41;10.33;;;7.23;;
13933;SDS011;7039;52.168;9.866;2023-05-13T03:13:08;11.40;;;6.40;;
13933;SDS011;7039;52.168;9.866;2023-05-13T03:15:34;8.80;;;6.53;;
13933;SDS011;7039;52.168;9.866;2023-05-13T03:18:01;9.07;;;6.90;;
13933;SDS011;7039;52.168;9.866;2023-05-13T03:20:27;8.50;;;6.43;;
13933;SDS011;7039;52.168;9.866;2023-05-13T03:22:55;9.03;;;7.00;;
13933;SDS011;7039;52.168;9.866;2023-05-13T03:25:21;8.17;;;6.83;;
13933;SDS011;7039;52.168;9.866;2023-05-13T03:27:48;10.90;;;7.10;;
13933;SDS011;7039;52.168;9.866;2023-05-13T03:30:14;9.67;;;6.20;;
13933;SDS011;7039;52.168;9.866;2023-05-13T03:32:41;12.20;;;7.40;;
13933;SDS011;7039;52.168;9.866;2023-05-13T03:35:08;7.93;;;6.57;;
13933;SDS011;7039;52.168;9.866;2023-05-13T03:37:34;7.43;;;6.10;;
13933;SDS011;7039;52.168;9.866;2023-05-13T03:40:02;9.73;;;7.20;;
13933;SDS011;7039;52.168;9.866;2023-05-13T03:42:30;9.93;;;6.53;;
13933;SDS011;7039;52.168;9.866;2023-05-13T03:44:56;8.10;;;6.27;;
13933;SDS011;7039;52.168;9.866;2023-05-13T03:47:23;15.03;;;6.53;;
13933;SDS011;7039;52.168;9.866;2023-05-13T03:49:49;10.83;;;6.63;;
13933;SDS011;7039;52.168;9.866;2023-05-13T03:52:16;11.03;;;6.87;;
13933;SDS011;7039;52.168;9.866;2023-05-13T03:54:42;8.27;;;7.00;;
13933;SDS011;7039;52.168;9.866;2023-05-13T03:57:10;12.60;;;8.70;;
13933;SDS011;7039;52.168;9.866;2023-05-13T03:59:36;9.77;;;6.90;;
13933;SDS011;7039;52.168;9.866;2023-05-13T04:02:03;11.83;;;7.10;;
13933;SDS011;7039;52.168;9.866;2023-05-13T04:04:30;8.87;;;7.00;;
13933;SDS011;7039;52.168;9.866;2023-05-13T04:06:56;9.77;;;7.03;;
13933;SDS011;7039;52.168;9.866;2023-05-13T04:09:23;9.53;;;7.10;;
13933;SDS011;7039;52.168;9.866;2023-05-13T04:11:50;9.00;;;6.70;;
13933;SDS011;7039;52.168;9.866;2023-05-13T04:14:18;9.97;;;7.10;;
13933;SDS011;7039;52.168;9.866;2023-05-13T04:16:44;8.60;;;7.00;;
13933;SDS011;7039;52.168;9.866;2023-05-13T04:19:11;9.17;;;6.47;;
13933;SDS011;7039;52.168;9.866;2023-05-13T04:21:37;7.90;;;6.40;;
13933;SDS011;7039;52.168;9.866;2023-05-13T04:24:04;9.43;;;6.47;;
13933;SDS011;7039;52.168;9.866;2023-05-13T04:26:31;11.40;;;7.50;;
13933;SDS011;7039;52.168;9.866;2023-05-13T04:28:57;11.47;;;6.80;;
13933;SDS011;7039;52.168;9.866;2023-05-13T04:31:25;11.10;;;7.10;;
13933;SDS011;7039;52.168;9.866;2023-05-13T04:33:52;8.67;;;6.70;;
13933;SDS011;7039;52.168;9.866;2023-05-13T04:36:18;7.93;;;6.97;;
13933;SDS011;7039;52.168;9.866;2023-05-13T04:38:45;11.40;;;6.60;;
13933;SDS011;7039;52.168;9.866;2023-05-13T04:41:11;10.73;;;7.30;;
13933;SDS011;7039;52.168;9.866;2023-05-13T04:43:38;10.57;;;6.77;;
13933;SDS011;7039;52.168;9.866;2023-05-13T04:46:04;10.23;;;7.00;;
13933;SDS011;7039;52.168;9.866;2023-05-13T04:48:32;12.30;;;7.57;;
13933;SDS011;7039;52.168;9.866;2023-05-13T04:50:58;11.60;;;7.67;;
13933;SDS011;7039;52.168;9.866;2023-05-13T04:53:25;9.67;;;6.90;;
13933;SDS011;7039;52.168;9.866;2023-05-13T04:55:51;11.47;;;7.67;;
13933;SDS011;7039;52.168;9.866;2023-05-13T04:58:24;11.67;;;7.63;;
13933;SDS011;7039;52.168;9.866;2023-05-13T05:00:51;11.80;;;7.17;;
13933;SDS011;7039;52.168;9.866;2023-05-13T05:03:17;16.33;;;8.27;;
13933;SDS011;7039;52.168;9.866;2023-05-13T05:05:45;9.57;;;6.97;;
13933;SDS011;7039;52.168;9.866;2023-05-13T05:08:11;9.97;;;7.83;;
13933;SDS011;7039;52.168;9.866;2023-05-13T05:10:38;11.57;;;7.90;;
13933;SDS011;7039;52.168;9.866;2023-05-13T05:13:04;11.57;;;7.90;;
13933;SDS011;7039;52.168;9.866;2023-05-13T05:15:31;14.30;;;8.07;;
13933;SDS011;7039;52.168;9.866;2023-05-13T05:17:57;10.80;;;8.47;;
13933;SDS011;7039;52.168;9.866;2023-05-13T05:20:24;10.40;;;8.60;;
13933;SDS011;7039;52.168;9.866;2023-05-13T05:22:51;16.00;;;8.27;;
13933;SDS011;7039;52.168;9.866;2023-05-13T05:25:18;10.13;;;8.23;;
13933;SDS011;7039;52.168;9.866;2023-05-13T05:27:44;10.13;;;8.27;;
13933;SDS011;7039;52.168;9.866;2023-05-13T05:30:11;10.27;;;8.00;;
13933;SDS011;7039;52.168;9.866;2023-05-13T05:32:38;11.07;;;8.57;;
13933;SDS011;7039;52.168;9.866;2023-05-13T05:35:05;10.30;;;8.33;;
13933;SDS011;7039;52.168;9.866;2023-05-13T05:37:32;10.73;;;8.50;;
13933;SDS011;7039;52.168;9.866;2023-05-13T05:40:00;18.00;;;8.33;;
13933;SDS011;7039;52.168;9.866;2023-05-13T05:42:27;11.93;;;8.67;;
13933;SDS011;7039;52.168;9.866;2023-05-13T05:44:54;12.23;;;8.83;;
13933;SDS011;7039;52.168;9.866;2023-05-13T05:47:20;13.07;;;9.10;;
13933;SDS011;7039;52.168;9.866;2023-05-13T05:49:47;11.70;;;8.87;;
13933;SDS011;7039;52.168;9.866;2023-05-13T05:52:13;13.33;;;9.03;;
13933;SDS011;7039;52.168;9.866;2023-05-13T05:54:39;14.70;;;8.27;;
13933;SDS011;7039;52.168;9.866;2023-05-13T05:57:07;17.77;;;8.70;;
13933;SDS011;7039;52.168;9.866;2023-05-13T05:59:34;11.07;;;8.23;;
13933;SDS011;7039;52.168;9.866;2023-05-13T06:02:00;16.73;;;8.50;;
13933;SDS011;7039;52.168;9.866;2023-05-13T06:04:27;13.47;;;8.97;;
13933;SDS011;7039;52.168;9.866;2023-05-13T06:06:53;14.87;;;8.57;;
13933;SDS011;7039;52.168;9.866;2023-05-13T06:09:20;17.00;;;8.53;;
13933;SDS011;7039;52.168;9.866;2023-05-13T06:11:46;12.03;;;8.23;;
13933;SDS011;7039;52.168;9.866;2023-05-13T06:14:14;10.07;;;7.83;;
13933;SDS011;7039;52.168;9.866;2023-05-13T06:16:41;8.67;;;7.27;;
13933;SDS011;7039;52.168;9.866;2023-05-13T06:19:08;14.13;;;7.80;;
13933;SDS011;7039;52.168;9.866;2023-05-13T06:21:35;9.23;;;7.80;;
13933;SDS011;7039;52.168;9.866;2023-05-13T06:24:01;12.67;;;8.53;;
13933;SDS011;7039;52.168;9.866;2023-05-13T06:26:28;14.70;;;7.43;;
13933;SDS011;7039;52.168;9.866;2023-05-13T06:28:54;12.80;;;7.67;;
13933;SDS011;7039;52.168;9.866;2023-05-13T06:31:22;11.67;;;7.40;;
13933;SDS011;7039;52.168;9.866;2023-05-13T06:33:49;9.97;;;7.90;;
13933;SDS011;7039;52.168;9.866;2023-05-13T06:36:15;9.97;;;7.83;;
13933;SDS011;7039;52.168;9.866;2023-05-13T06:38:41;14.93;;;9.07;;
13933;SDS011;7039;52.168;9.866;2023-05-13T06:41:08;12.30;;;8.27;;
13933;SDS011;7039;52.168;9.866;2023-05-13T06:43:34;11.57;;;8.27;;
13933;SDS011;7039;52.168;9.866;2023-05-13T06:51:21;12.53;;;7.57;;
13933;SDS011;7039;52.168;9.866;2023-05-13T06:53:50;10.53;;;7.87;;
13933;SDS011;7039;52.168;9.866;2023-05-13T06:56:16;12.37;;;7.87;;
13933;SDS011;7039;52.168;9.866;2023-05-13T06:58:43;10.47;;;7.43;;
13933;SDS011;7039;52.168;9.866;2023-05-13T07:01:10;9.03;;;7.80;;
13933;SDS011;7039;52.168;9.866;2023-05-13T07:03:37;8.87;;;7.17;;
13933;SDS011;7039;52.168;9.866;2023-05-13T07:06:03;8.83;;;7.40;;
13933;SDS011;7039;52.168;9.866;2023-05-13T07:08:31;10.17;;;6.80;;
13933;SDS011;7039;52.168;9.866;2023-05-13T07:10:57;7.70;;;6.83;;
13933;SDS011;7039;52.168;9.866;2023-05-13T07:13:24;8.33;;;6.43;;
13933;SDS011;7039;52.168;9.866;2023-05-13T07:15:51;12.57;;;6.60;;
13933;SDS011;7039;52.168;9.866;2023-05-13T07:18:17;9.53;;;6.73;;
13933;SDS011;7039;52.168;9.866;2023-05-13T07:20:44;9.10;;;6.73;;
13933;SDS011;7039;52.168;9.866;2023-05-13T07:23:10;10.50;;;7.77;;
13933;SDS011;7039;52.168;9.866;2023-05-13T07:25:40;7.60;;;6.53;;
13933;SDS011;7039;52.168;9.866;2023-05-13T07:28:09;12.10;;;7.90;;
13933;SDS011;7039;52.168;9.866;2023-05-13T07:30:38;9.03;;;7.17;;
13933;SDS011;7039;52.168;9.866;2023-05-13T07:33:04;11.90;;;7.23;;
13933;SDS011;7039;52.168;9.866;2023-05-13T07:35:31;8.73;;;7.50;;
13933;SDS011;7039;52.168;9.866;2023-05-13T07:37:58;10.53;;;7.40;;
13933;SDS011;7039;52.168;9.866;2023-05-13T07:40:26;7.87;;;7.00;;
13933;SDS011;7039;52.168;9.866;2023-05-13T07:43:17;9.97;;;7.17;;
13933;SDS011;7039;52.168;9.866;2023-05-13T07:45:58;10.13;;;6.83;;
13933;SDS011;7039;52.168;9.866;2023-05-13T07:48:25;13.80;;;8.40;;
13933;SDS011;7039;52.168;9.866;2023-05-13T07:51:05;10.33;;;7.33;;
13933;SDS011;7039;52.168;9.866;2023-05-13T07:56:35;8.70;;;7.50;;
13933;SDS011;7039;52.168;9.866;2023-05-13T07:59:18;9.80;;;7.97;;
13933;SDS011;7039;52.168;9.866;2023-05-13T08:01:45;11.80;;;7.67;;
13933;SDS011;7039;52.168;9.866;2023-05-13T08:20:05;10.10;;;6.97;;
13933;SDS011;7039;52.168;9.866;2023-05-13T08:22:32;9.73;;;7.50;;
13933;SDS011;7039;52.168;9.866;2023-05-13T08:25:09;9.07;;;7.13;;
13933;SDS011;7039;52.168;9.866;2023-05-13T08:27:36;12.43;;;7.80;;
13933;SDS011;7039;52.168;9.866;2023-05-13T08:30:03;17.05;;;8.48;;
13933;SDS011;7039;52.168;9.866;2023-05-13T08:32:30;17.17;;;7.97;;
13933;SDS011;7039;52.168;9.866;2023-05-13T08:34:57;17.07;;;8.10;;
13933;SDS011;7039;52.168;9.866;2023-05-13T08:37:26;10.70;;;7.37;;
13933;SDS011;7039;52.168;9.866;2023-05-13T08:39:53;13.03;;;7.63;;
13933;SDS011;7039;52.168;9.866;2023-05-13T08:42:20;15.23;;;7.70;;
13933;SDS011;7039;52.168;9.866;2023-05-13T08:44:48;12.97;;;8.17;;
13933;SDS011;7039;52.168;9.866;2023-05-13T08:47:19;12.60;;;7.27;;
13933;SDS011;7039;52.168;9.866;2023-05-13T08:49:52;8.47;;;7.13;;
13933;SDS011;7039;52.168;9.866;2023-05-13T08:52:20;9.80;;;7.30;;
13933;SDS011;7039;52.168;9.866;2023-05-13T08:54:49;10.07;;;7.50;;
13933;SDS011;7039;52.168;9.866;2023-05-13T08:57:15;10.63;;;7.60;;
13933;SDS011;7039;52.168;9.866;2023-05-13T08:59:42;12.33;;;7.73;;
13933;SDS011;7039;52.168;9.866;2023-05-13T09:02:08;10.50;;;7.77;;
13933;SDS011;7039;52.168;9.866;2023-05-13T09:04:35;10.50;;;7.80;;
13933;SDS011;7039;52.168;9.866;2023-05-13T09:07:05;9.77;;;7.77;;
13933;SDS011;7039;52.168;9.866;2023-05-13T09:09:32;11.77;;;8.27;;
13933;SDS011;7039;52.168;9.866;2023-05-13T09:12:00;13.80;;;9.03;;
13933;SDS011;7039;52.168;9.866;2023-05-13T09:14:28;11.90;;;8.47;;
13933;SDS011;7039;52.168;9.866;2023-05-13T09:16:56;9.10;;;8.20;;
13933;SDS011;7039;52.168;9.866;2023-05-13T09:19:23;9.50;;;7.90;;
13933;SDS011;7039;52.168;9.866;2023-05-13T09:21:51;14.00;;;8.10;;
13933;SDS011;7039;52.168;9.866;2023-05-13T09:24:18;10.93;;;8.17;;
13933;SDS011;7039;52.168;9.866;2023-05-13T09:26:46;13.40;;;8.60;;
13933;SDS011;7039;52.168;9.866;2023-05-13T09:29:18;11.03;;;7.93;;
13933;SDS011;7039;52.168;9.866;2023-05-13T09:31:47;12.33;;;7.80;;
13933;SDS011;7039;52.168;9.866;2023-05-13T09:34:26;15.83;;;8.67;;
13933;SDS011;7039;52.168;9.866;2023-05-13T09:36:55;16.13;;;8.40;;
13933;SDS011;7039;52.168;9.866;2023-05-13T09:39:22;10.30;;;8.37;;
13933;SDS011;7039;52.168;9.866;2023-05-13T09:41:49;9.37;;;7.43;;
13933;SDS011;7039;52.168;9.866;2023-05-13T09:44:15;14.07;;;7.30;;
13933;SDS011;7039;52.168;9.866;2023-05-13T09:46:43;8.63;;;6.93;;
13933;SDS011;7039;52.168;9.866;2023-05-13T09:49:10;13.20;;;7.90;;
13933;SDS011;7039;52.168;9.866;2023-05-13T09:51:36;9.63;;;7.43;;
13933;SDS011;7039;52.168;9.866;2023-05-13T09:54:03;13.53;;;8.53;;
13933;SDS011;7039;52.168;9.866;2023-05-13T09:56:31;13.03;;;8.00;;
13933;SDS011;7039;52.168;9.866;2023-05-13T09:59:00;9.40;;;7.77;;
13933;SDS011;7039;52.168;9.866;2023-05-13T10:01:27;11.93;;;7.33;;
13933;SDS011;7039;52.168;9.866;2023-05-13T10:03:56;10.03;;;7.20;;
13933;SDS011;7039;52.168;9.866;2023-05-13T10:06:24;19.80;;;7.63;;
13933;SDS011;7039;52.168;9.866;2023-05-13T10:08:52;10.00;;;7.43;;
13933;SDS011;7039;52.168;9.866;2023-05-13T10:11:21;11.13;;;7.10;;
13933;SDS011;7039;52.168;9.866;2023-05-13T10:13:49;11.97;;;7.20;;
13933;SDS011;7039;52.168;9.866;2023-05-13T10:16:20;11.00;;;6.63;;
13933;SDS011;7039;52.168;9.866;2023-05-13T10:18:48;11.27;;;7.10;;
13933;SDS011;7039;52.168;9.866;2023-05-13T10:21:17;7.00;;;6.23;;
13933;SDS011;7039;52.168;9.866;2023-05-13T10:23:44;10.60;;;6.60;;
13933;SDS011;7039;52.168;9.866;2023-05-13T10:26:11;9.53;;;6.33;;
13933;SDS011;7039;52.168;9.866;2023-05-13T10:28:38;8.27;;;6.30;;
13933;SDS011;7039;52.168;9.866;2023-05-13T10:31:04;11.20;;;6.33;;
13933;SDS011;7039;52.168;9.866;2023-05-13T10:33:31;6.97;;;5.80;;
13933;SDS011;7039;52.168;9.866;2023-05-13T10:36:00;7.80;;;5.87;;
13933;SDS011;7039;52.168;9.866;2023-05-13T10:38:43;8.03;;;5.23;;
13933;SDS011;7039;52.168;9.866;2023-05-13T10:41:29;10.80;;;5.20;;
13933;SDS011;7039;52.168;9.866;2023-05-13T10:44:19;6.67;;;5.07;;
13933;SDS011;7039;52.168;9.866;2023-05-13T10:46:46;9.17;;;5.07;;
13933;SDS011;7039;52.168;9.866;2023-05-13T10:49:14;7.73;;;4.80;;
13933;SDS011;7039;52.168;9.866;2023-05-13T10:51:43;14.73;;;4.50;;
13933;SDS011;7039;52.168;9.866;2023-05-13T10:54:18;5.70;;;4.37;;
13933;SDS011;7039;52.168;9.866;2023-05-13T10:56:45;9.77;;;4.63;;
13933;SDS011;7039;52.168;9.866;2023-05-13T10:59:21;9.60;;;5.10;;
13933;SDS011;7039;52.168;9.866;2023-05-13T11:01:47;5.10;;;4.60;;
13933;SDS011;7039;52.168;9.866;2023-05-13T11:04:15;7.97;;;4.77;;
13933;SDS011;7039;52.168;9.866;2023-05-13T11:06:43;7.87;;;4.50;;
13933;SDS011;7039;52.168;9.866;2023-05-13T11:09:11;7.20;;;5.13;;
13933;SDS011;7039;52.168;9.866;2023-05-13T11:11:41;13.60;;;5.70;;
13933;SDS011;7039;52.168;9.866;2023-05-13T11:14:15;6.73;;;4.80;;
13933;SDS011;7039;52.168;9.866;2023-05-13T11:16:51;7.23;;;5.30;;
13933;SDS011;7039;52.168;9.866;2023-05-13T11:19:19;5.73;;;5.20;;
13933;SDS011;7039;52.168;9.866;2023-05-13T11:21:48;6.63;;;4.70;;
13933;SDS011;7039;52.168;9.866;2023-05-13T11:24:17;6.82;;;4.57;;
13933;SDS011;7039;52.168;9.866;2023-05-13T11:26:47;5.63;;;4.50;;
13933;SDS011;7039;52.168;9.866;2023-05-13T11:29:25;10.27;;;5.00;;
13933;SDS011;7039;52.168;9.866;2023-05-13T11:31:53;6.37;;;4.87;;
13933;SDS011;7039;52.168;9.866;2023-05-13T11:34:21;8.52;;;4.70;;
13933;SDS011;7039;52.168;9.866;2023-05-13T11:36:48;10.98;;;4.80;;
13933;SDS011;7039;52.168;9.866;2023-05-13T11:39:17;6.72;;;4.70;;
13933;SDS011;7039;52.168;9.866;2023-05-13T11:41:46;7.68;;;4.75;;
13933;SDS011;7039;52.168;9.866;2023-05-13T11:44:14;4.77;;;4.27;;
13933;SDS011;7039;52.168;9.866;2023-05-13T11:46:49;8.10;;;4.43;;
13933;SDS011;7039;52.168;9.866;2023-05-13T11:49:33;7.95;;;5.18;;
13933;SDS011;7039;52.168;9.866;2023-05-13T11:52:01;5.68;;;4.43;;
13933;SDS011;7039;52.168;9.866;2023-05-13T11:54:28;12.05;;;4.90;;
13933;SDS011;7039;52.168;9.866;2023-05-13T11:56:56;10.73;;;4.88;;
13933;SDS011;7039;52.168;9.866;2023-05-13T11:59:23;9.48;;;4.70;;
13933;SDS011;7039;52.168;9.866;2023-05-13T12:01:59;12.85;;;4.70;;
13933;SDS011;7039;52.168;9.866;2023-05-13T12:04:26;5.70;;;4.22;;
13933;SDS011;7039;52.168;9.866;2023-05-13T12:06:54;6.30;;;4.40;;
13933;SDS011;7039;52.168;9.866;2023-05-13T12:09:21;6.75;;;4.50;;
13933;SDS011;7039;52.168;9.866;2023-05-13T12:11:47;4.10;;;3.80;;
13933;SDS011;7039;52.168;9.866;2023-05-13T12:14:15;6.82;;;4.57;;
13933;SDS011;7039;52.168;9.866;2023-05-13T12:16:42;8.02;;;4.07;;
13933;SDS011;7039;52.168;9.866;2023-05-13T12:19:09;7.35;;;4.32;;
13933;SDS011;7039;52.168;9.866;2023-05-13T12:21:36;7.72;;;4.10;;
13933;SDS011;7039;52.168;9.866;2023-05-13T12:24:15;5.07;;;4.28;;
13933;SDS011;7039;52.168;9.866;2023-05-13T12:26:42;8.80;;;4.25;;
13933;SDS011;7039;52.168;9.866;2023-05-13T12:29:08;12.65;;;4.97;;
13933;SDS011;7039;52.168;9.866;2023-05-13T12:31:36;5.22;;;4.15;;
13933;SDS011;7039;52.168;9.866;2023-05-13T12:34:03;4.50;;;4.07;;
13933;SDS011;7039;52.168;9.866;2023-05-13T12:36:30;7.47;;;4.53;;
13933;SDS011;7039;52.168;9.866;2023-05-13T12:39:00;6.35;;;4.35;;
13933;SDS011;7039;52.168;9.866;2023-05-13T12:41:28;6.57;;;4.10;;
13933;SDS011;7039;52.168;9.866;2023-05-13T12:43:56;6.57;;;4.30;;
13933;SDS011;7039;52.168;9.866;2023-05-13T12:46:24;7.68;;;4.20;;
13933;SDS011;7039;52.168;9.866;2023-05-13T12:48:53;4.93;;;4.20;;
13933;SDS011;7039;52.168;9.866;2023-05-13T12:51:20;7.00;;;4.63;;
13933;SDS011;7039;52.168;9.866;2023-05-13T12:53:47;4.65;;;4.13;;
13933;SDS011;7039;52.168;9.866;2023-05-13T12:56:14;7.03;;;4.35;;
13933;SDS011;7039;52.168;9.866;2023-05-13T12:58:40;5.53;;;4.90;;
13933;SDS011;7039;52.168;9.866;2023-05-13T13:01:07;9.23;;;4.13;;
13933;SDS011;7039;52.168;9.866;2023-05-13T13:03:33;5.78;;;4.22;;
13933;SDS011;7039;52.168;9.866;2023-05-13T13:06:01;6.53;;;4.13;;
13933;SDS011;7039;52.168;9.866;2023-05-13T13:08:27;9.80;;;3.70;;
13933;SDS011;7039;52.168;9.866;2023-05-13T13:10:54;4.55;;;3.55;;
13933;SDS011;7039;52.168;9.866;2023-05-13T13:13:21;11.68;;;3.90;;
13933;SDS011;7039;52.168;9.866;2023-05-13T13:15:47;8.88;;;3.55;;
13933;SDS011;7039;52.168;9.866;2023-05-13T13:18:14;4.47;;;3.95;;
13933;SDS011;7039;52.168;9.866;2023-05-13T13:20:40;6.10;;;3.78;;
13933;SDS011;7039;52.168;9.866;2023-05-13T13:23:08;5.22;;;3.58;;
13933;SDS011;7039;52.168;9.866;2023-05-13T13:25:35;10.95;;;3.25;;
13933;SDS011;7039;52.168;9.866;2023-05-13T13:28:01;10.93;;;3.50;;
13933;SDS011;7039;52.168;9.866;2023-05-13T13:30:29;5.03;;;3.40;;
13933;SDS011;7039;52.168;9.866;2023-05-13T13:32:55;4.63;;;3.70;;
13933;SDS011;7039;52.168;9.866;2023-05-13T13:35:22;7.82;;;3.83;;
13933;SDS011;7039;52.168;9.866;2023-05-13T13:37:48;9.35;;;3.55;;
13933;SDS011;7039;52.168;9.866;2023-05-13T13:40:16;6.68;;;3.53;;
13933;SDS011;7039;52.168;9.866;2023-05-13T13:42:43;7.97;;;3.80;;
13933;SDS011;7039;52.168;9.866;2023-05-13T13:45:10;5.18;;;3.22;;
13933;SDS011;7039;52.168;9.866;2023-05-13T13:47:37;3.35;;;3.05;;
13933;SDS011;7039;52.168;9.866;2023-05-13T13:50:04;5.93;;;3.55;;
13933;SDS011;7039;52.168;9.866;2023-05-13T13:52:31;5.82;;;3.70;;
13933;SDS011;7039;52.168;9.866;2023-05-13T13:54:57;5.55;;;3.83;;
13933;SDS011;7039;52.168;9.866;2023-05-13T13:57:25;4.07;;;3.03;;
13933;SDS011;7039;52.168;9.866;2023-05-13T13:59:52;3.38;;;2.95;;
13933;SDS011;7039;52.168;9.866;2023-05-13T14:02:18;4.28;;;3.10;;
13933;SDS011;7039;52.168;9.866;2023-05-13T14:04:45;3.55;;;2.97;;
13933;SDS011;7039;52.168;9.866;2023-05-13T14:07:11;6.18;;;3.25;;
13933;SDS011;7039;52.168;9.866;2023-05-13T14:09:38;5.93;;;3.20;;
13933;SDS011;7039;52.168;9.866;2023-05-13T14:12:04;3.55;;;3.10;;
13933;SDS011;7039;52.168;9.866;2023-05-13T14:14:32;7.57;;;2.90;;
13933;SDS011;7039;52.168;9.866;2023-05-13T14:16:59;4.68;;;3.03;;
13933;SDS011;7039;52.168;9.866;2023-05-13T14:19:25;9.95;;;3.08;;
13933;SDS011;7039;52.168;9.866;2023-05-13T14:21:52;5.15;;;3.05;;
13933;SDS011;7039;52.168;9.866;2023-05-13T14:24:18;4.47;;;3.10;;
13933;SDS011;7039;52.168;9.866;2023-05-13T14:26:45;7.25;;;3.08;;
13933;SDS011;7039;52.168;9.866;2023-05-13T14:29:11;4.32;;;3.20;;
13933;SDS011;7039;52.168;9.866;2023-05-13T14:31:39;6.95;;;3.10;;
13933;SDS011;7039;52.168;9.866;2023-05-13T14:34:06;6.65;;;3.33;;
13933;SDS011;7039;52.168;9.866;2023-05-13T14:36:32;5.78;;;2.85;;
13933;SDS011;7039;52.168;9.866;2023-05-13T14:38:59;3.00;;;2.70;;
13933;SDS011;7039;52.168;9.866;2023-05-13T14:41:25;3.17;;;2.90;;
13933;SDS011;7039;52.168;9.866;2023-05-13T14:43:53;3.47;;;3.15;;
13933;SDS011;7039;52.168;9.866;2023-05-13T14:46:19;3.28;;;3.03;;
13933;SDS011;7039;52.168;9.866;2023-05-13T14:48:48;3.80;;;2.90;;
13933;SDS011;7039;52.168;9.866;2023-05-13T14:51:14;3.33;;;3.03;;
13933;SDS011;7039;52.168;9.866;2023-05-13T14:53:41;5.28;;;3.00;;
13933;SDS011;7039;52.168;9.866;2023-05-13T14:56:08;4.85;;;3.03;;
13933;SDS011;7039;52.168;9.866;2023-05-13T14:58:34;6.25;;;3.30;;
13933;SDS011;7039;52.168;9.866;2023-05-13T15:01:01;5.68;;;3.40;;
13933;SDS011;7039;52.168;9.866;2023-05-13T15:03:27;8.27;;;2.88;;
13933;SDS011;7039;52.168;9.866;2023-05-13T15:05:55;7.50;;;2.92;;
13933;SDS011;7039;52.168;9.866;2023-05-13T15:08:22;5.90;;;2.95;;
13933;SDS011;7039;52.168;9.866;2023-05-13T15:10:49;4.20;;;2.67;;
13933;SDS011;7039;52.168;9.866;2023-05-13T15:13:15;5.40;;;4.57;;
13933;SDS011;7039;52.168;9.866;2023-05-13T15:15:42;6.22;;;2.97;;
13933;SDS011;7039;52.168;9.866;2023-05-13T15:18:09;5.82;;;3.40;;
13933;SDS011;7039;52.168;9.866;2023-05-13T15:20:35;4.05;;;2.40;;
13933;SDS011;7039;52.168;9.866;2023-05-13T15:23:03;5.88;;;2.88;;